createdAt,value
2023-04-28T00:00:24.057Z,22.8
2023-04-28T00:06:17.985Z,22.7
2023-04-28T00:12:09.177Z,22.6
2023-04-28T00:18:01.483Z,22.6
2023-04-28T00:23:53.145Z,22.6
2023-04-28T00:29:49.099Z,22.5
2023-04-28T00:35:40.402Z,22.4
2023-04-28T00:41:32.418Z,22.4
2023-04-28T00:47:08.023Z,22.4
2023-04-28T00:52:43.956Z,22.3
2023-04-28T00:58:35.208Z,22.3
2023-04-28T01:03:57.844Z,22.3
2023-04-28T01:09:50.105Z,22.3
2023-04-28T01:15:42.011Z,22.2
2023-04-28T01:21:33.279Z,22.1
2023-04-28T01:27:24.473Z,22.1
2023-04-28T01:33:16.211Z,22.1
2023-04-28T01:39:07.459Z,22.1
2023-04-28T01:44:59.051Z,22.1
2023-04-28T01:50:51.159Z,22
2023-04-28T01:56:43.177Z,22
2023-04-28T02:02:36.090Z,22
2023-04-28T02:08:28.228Z,21.9
2023-04-28T02:14:04.015Z,21.9
2023-04-28T02:19:56.572Z,21.9
2023-04-28T02:25:34.750Z,21.9
2023-04-28T02:31:10.783Z,21.9
2023-04-28T02:37:02.172Z,21.9
2023-04-28T02:42:53.625Z,21.8
2023-04-28T02:48:30.041Z,21.8
2023-04-28T02:54:21.534Z,21.8
2023-04-28T03:00:13.697Z,21.8
2023-04-28T03:05:51.639Z,21.8
2023-04-28T03:11:27.695Z,21.8
2023-04-28T03:16:50.148Z,21.7
2023-04-28T03:22:41.060Z,21.8
2023-04-28T03:28:26.172Z,21.7
2023-04-28T03:34:02.249Z,21.7
2023-04-28T03:39:39.048Z,21.7
2023-04-28T03:45:32.287Z,21.6
2023-04-28T03:51:23.995Z,21.6
2023-04-28T03:57:14.822Z,21.6
2023-04-28T04:03:06.527Z,21.6
2023-04-28T04:08:46.169Z,21.6
2023-04-28T04:14:37.988Z,21.6
2023-04-28T04:20:30.949Z,21.5
2023-04-28T04:26:22.548Z,21.5
2023-04-28T04:32:13.870Z,21.6
2023-04-28T04:38:05.705Z,21.5
2023-04-28T04:44:13.147Z,21.5
2023-04-28T04:50:06.376Z,21.4
2023-04-28T04:56:00.159Z,21.5
2023-04-28T05:01:51.942Z,21.4
2023-04-28T05:08:00.437Z,21.4
2023-04-28T05:13:54.873Z,21.4
2023-04-28T05:19:47.281Z,21.4
2023-04-28T05:25:39.405Z,21.4
2023-04-28T05:31:30.885Z,21.4
2023-04-28T05:37:23.062Z,21.4
2023-04-28T05:43:14.990Z,21.4
2023-04-28T05:49:19.019Z,21.4
2023-04-28T05:55:11.128Z,21.4
2023-04-28T06:01:10.584Z,21.3
2023-04-28T06:06:35.518Z,21.3
2023-04-28T06:12:26.846Z,21.3
2023-04-28T06:17:48.145Z,21.3
2023-04-28T06:23:24.059Z,21.3
2023-04-28T06:28:46.266Z,21.3
2023-04-28T06:34:22.738Z,21.3
2023-04-28T06:39:30.057Z,21.3
2023-04-28T06:44:53.761Z,21.3
2023-04-28T06:50:14.976Z,21.3
2023-04-28T06:55:57.077Z,21.3
2023-04-28T07:01:50.057Z,21.3
2023-04-28T07:07:44.548Z,21.3
2023-04-28T07:13:38.848Z,21.3
2023-04-28T07:19:30.501Z,21.3
2023-04-28T07:25:22.456Z,21.3
2023-04-28T07:31:31.485Z,21.3
2023-04-28T07:37:25.969Z,21.3
2023-04-28T07:43:19.840Z,21.3
2023-04-28T07:48:57.074Z,21.3
2023-04-28T07:54:48.439Z,21.2
2023-04-28T08:00:41.117Z,21.2
2023-04-28T08:06:35.909Z,21.2
2023-04-28T08:12:26.441Z,21.3
2023-04-28T08:18:04.007Z,21.2
2023-04-28T08:23:58.347Z,21.2
2023-04-28T08:29:36.851Z,21.2
2023-04-28T08:35:13.425Z,21.2
2023-04-28T08:40:52.305Z,21.2
2023-04-28T08:46:14.470Z,21.2
2023-04-28T08:51:51.050Z,21.2
2023-04-28T09:03:05.328Z,21.2
2023-04-28T09:19:29.386Z,20.9
2023-04-28T09:25:38.972Z,20.9
2023-04-28T09:31:15.041Z,20.9
2023-04-28T09:36:37.168Z,20.9
2023-04-28T09:42:15.185Z,21
2023-04-28T09:47:52.766Z,21
2023-04-28T09:53:43.840Z,21
2023-04-28T09:59:35.732Z,21
2023-04-28T10:07:25.656Z,21
2023-04-28T10:13:17.199Z,21
2023-04-28T10:18:53.599Z,21
2023-04-28T10:24:44.781Z,21
2023-04-28T10:30:48.532Z,20.9
2023-04-28T10:36:52.553Z,21
2023-04-28T10:42:43.130Z,20.9
2023-04-28T10:48:40.339Z,21
2023-04-28T10:54:45.253Z,21
2023-04-28T11:00:48.617Z,20.9
2023-04-28T11:06:42.635Z,21
2023-04-28T11:12:34.238Z,21
2023-04-28T11:18:12.515Z,20.9
2023-04-28T11:24:03.690Z,20.9
2023-04-28T11:29:55.058Z,20.9
2023-04-28T11:35:46.892Z,20.9
2023-04-28T11:41:39.431Z,21
2023-04-28T11:47:39.044Z,20.9
2023-04-28T11:53:30.908Z,20.9
2023-04-28T12:05:18.494Z,20.9
2023-04-28T12:11:12.638Z,20.9
2023-04-28T12:17:21.375Z,20.9
2023-04-28T12:23:14.027Z,20.9
2023-04-28T12:28:49.491Z,20.9
2023-04-28T12:34:42.993Z,20.9
2023-04-28T12:40:35.337Z,20.9
2023-04-28T12:46:28.440Z,20.9
2023-04-28T12:52:20.342Z,20.9
2023-04-28T12:57:56.499Z,20.9
2023-04-28T13:03:49.350Z,20.9
2023-04-28T13:09:42.559Z,20.9
2023-04-28T13:15:45.055Z,20.9
2023-04-28T13:21:38.423Z,20.9
2023-04-28T13:27:15.877Z,20.9
2023-04-28T13:32:52.692Z,20.9
2023-04-28T13:38:43.008Z,20.9
2023-04-28T13:44:36.227Z,20.9
2023-04-28T13:50:27.874Z,20.9
2023-04-28T13:56:19.406Z,20.9
2023-04-28T14:02:11.086Z,20.9
2023-04-28T14:08:01.123Z,20.9
2023-04-28T14:13:54.977Z,20.9
2023-04-28T14:19:57.730Z,20.9
2023-04-28T14:25:49.082Z,20.9
2023-04-28T14:31:40.977Z,20.9
2023-04-28T14:37:33.113Z,20.9
2023-04-28T14:43:09.759Z,20.9
2023-04-28T14:49:02.061Z,20.9
2023-04-28T14:54:53.617Z,20.9
2023-04-28T15:00:47.721Z,20.9
2023-04-28T15:06:41.609Z,20.9
2023-04-28T15:12:20.881Z,20.9
2023-04-28T15:18:13.674Z,20.9
2023-04-28T15:24:05.975Z,21
2023-04-28T15:29:58.350Z,20.9
2023-04-28T15:35:51.675Z,20.9
2023-04-28T15:41:46.888Z,20.9
2023-04-28T15:47:38.701Z,21
2023-04-28T15:53:31.157Z,20.9
2023-04-28T15:59:23.068Z,20.9
2023-04-28T16:05:16.874Z,21
2023-04-28T16:11:09.101Z,20.9
2023-04-28T16:17:01.873Z,21
2023-04-28T16:22:38.578Z,21
2023-04-28T16:28:32.214Z,21
2023-04-28T16:34:24.904Z,21
2023-04-28T16:40:17.331Z,21
2023-04-28T16:46:10.146Z,20.9
2023-04-28T16:52:02.890Z,20.8
2023-04-28T16:57:55.848Z,20.8
2023-04-28T17:03:48.689Z,20.7
2023-04-28T17:09:10.641Z,20.6
2023-04-28T17:15:05.000Z,20.6
2023-04-28T17:20:58.079Z,20.7
2023-04-28T17:26:49.891Z,20.8
2023-04-28T17:32:44.980Z,20.7
2023-04-28T17:38:37.121Z,20.7
2023-04-28T17:44:28.651Z,20.7
2023-04-28T17:50:21.255Z,20.7
2023-04-28T17:56:14.920Z,20.7
2023-04-28T18:02:06.978Z,20.7
2023-04-28T18:08:03.140Z,20.7
2023-04-28T18:13:57.835Z,20.7
2023-04-28T18:19:52.832Z,20.7
2023-04-28T18:25:44.670Z,20.7
2023-04-28T18:31:36.713Z,20.7
2023-04-28T18:37:32.086Z,20.7
2023-04-28T18:43:24.190Z,20.7
2023-04-28T18:49:19.762Z,20.7
2023-04-28T18:55:10.964Z,20.7
2023-04-28T19:01:03.018Z,20.7
2023-04-28T19:06:41.416Z,20.7
2023-04-28T19:12:37.787Z,20.7
2023-04-28T19:18:29.622Z,20.7
2023-04-28T19:24:21.667Z,20.7
2023-04-28T19:30:14.112Z,20.7
2023-04-28T19:36:06.797Z,20.7
2023-04-28T19:41:59.088Z,20.7
2023-04-28T19:47:52.184Z,20.7
2023-04-28T19:53:44.356Z,20.7
2023-04-28T19:59:06.478Z,20.7
2023-04-28T20:05:03.613Z,20.6
2023-04-28T20:10:41.788Z,20.6
2023-04-28T20:16:33.381Z,20.7
2023-04-28T20:22:25.410Z,20.7
2023-04-28T20:28:16.831Z,25.4
2023-04-28T20:34:10.234Z,29
2023-04-28T20:40:01.804Z,30.9
2023-04-28T20:45:53.673Z,28.4
2023-04-28T20:51:47.509Z,26.3
2023-04-28T20:57:40.646Z,25.9
2023-04-28T21:03:33.894Z,25.6
2023-04-28T21:09:26.423Z,28.8
2023-04-28T21:15:17.312Z,31
2023-04-28T21:21:09.476Z,27.4
2023-04-28T21:26:45.696Z,26.2
2023-04-28T21:32:37.315Z,25.9
2023-04-28T21:38:29.122Z,25.8
2023-04-28T21:44:05.074Z,26.4
2023-04-28T21:49:26.308Z,29.5
2023-04-28T21:55:17.792Z,30.9
2023-04-28T22:01:09.352Z,26.8
2023-04-28T22:06:48.009Z,26.1
2023-04-28T22:12:39.840Z,25.9
2023-04-28T22:18:47.429Z,25.8
2023-04-28T22:24:39.187Z,25
2023-04-28T22:30:15.015Z,29.1
2023-04-28T22:35:50.995Z,31
2023-04-28T22:41:27.224Z,27
2023-04-28T22:47:18.562Z,26.2
2023-04-28T22:53:10.145Z,26
2023-04-28T22:58:49.040Z,25.8
2023-04-28T23:04:42.757Z,25.6
2023-04-28T23:10:19.129Z,27.9
2023-04-28T23:16:10.696Z,30.3
2023-04-28T23:22:04.991Z,27.6
2023-04-28T23:27:40.825Z,26.1
2023-04-28T23:33:17.182Z,24.8
2023-04-28T23:38:53.228Z,24.6
2023-04-28T23:44:29.709Z,24.5
2023-04-28T23:50:21.449Z,24.4
2023-04-28T23:56:12.158Z,26.9
